createdAt,value
2022-12-09T00:00:23.571Z,28.15
2022-12-09T00:02:51.426Z,30.42
2022-12-09T00:05:19.487Z,28.90
2022-12-09T00:07:47.583Z,31.98
2022-12-09T00:10:15.808Z,32.60
2022-12-09T00:12:45.058Z,30.63
2022-12-09T00:15:13.039Z,29.15
2022-12-09T00:17:41.069Z,31.85
2022-12-09T00:20:10.873Z,33.22
2022-12-09T00:22:39.357Z,32.25
2022-12-09T00:25:08.216Z,32.35
2022-12-09T00:27:36.210Z,30.90
2022-12-09T00:30:06.987Z,33.58
2022-12-09T00:32:35.155Z,31.43
2022-12-09T00:35:04.474Z,33.15
2022-12-09T00:37:32.400Z,32.80
2022-12-09T00:40:00.473Z,33.20
2022-12-09T00:42:28.515Z,36.78
2022-12-09T00:44:56.349Z,39.65
2022-12-09T00:47:25.513Z,33.92
2022-12-09T00:49:53.624Z,37.25
2022-12-09T00:52:21.749Z,34.55
2022-12-09T00:54:49.543Z,37.13
2022-12-09T00:57:18.047Z,37.25
2022-12-09T00:59:46.089Z,39.15
2022-12-09T01:02:13.990Z,45.47
2022-12-09T01:04:43.400Z,38.05
2022-12-09T01:07:11.755Z,40.58
2022-12-09T01:09:39.608Z,44.85
2022-12-09T01:12:07.434Z,45.88
2022-12-09T01:14:35.212Z,42.55
2022-12-09T01:17:03.240Z,44.70
2022-12-09T01:19:31.340Z,45.83
2022-12-09T01:22:00.629Z,44.65
2022-12-09T01:24:28.643Z,40.83
2022-12-09T01:26:56.464Z,45.17
2022-12-09T01:29:24.325Z,48.15
2022-12-09T01:31:52.459Z,38.97
2022-12-09T01:34:20.305Z,44.40
2022-12-09T01:36:48.576Z,41.88
2022-12-09T01:39:17.934Z,46.00
2022-12-09T01:41:45.876Z,45.25
2022-12-09T01:44:18.193Z,46.95
2022-12-09T01:46:47.156Z,47.88
2022-12-09T01:49:21.534Z,44.25
2022-12-09T01:51:57.083Z,49.33
2022-12-09T01:54:26.718Z,45.03
2022-12-09T01:56:56.292Z,44.15
2022-12-09T01:59:25.597Z,42.33
2022-12-09T02:01:59.662Z,44.25
2022-12-09T02:04:30.248Z,50.05
2022-12-09T02:06:59.206Z,48.20
2022-12-09T02:09:28.421Z,39.17
2022-12-09T02:12:07.747Z,41.72
2022-12-09T02:14:41.421Z,38.92
2022-12-09T02:17:25.180Z,39.58
2022-12-09T02:20:01.888Z,40.88
2022-12-09T02:22:35.551Z,41.75
2022-12-09T02:25:19.866Z,35.97
2022-12-09T02:27:57.193Z,35.33
2022-12-09T02:30:32.264Z,36.15
2022-12-09T02:33:27.513Z,38.97
2022-12-09T02:36:03.963Z,35.92
2022-12-09T02:38:34.669Z,41.38
2022-12-09T02:41:07.559Z,40.28
2022-12-09T02:43:45.002Z,40.10
2022-12-09T02:46:18.265Z,47.60
2022-12-09T02:48:52.351Z,43.17
2022-12-09T02:51:23.473Z,43.28
2022-12-09T02:53:55.033Z,42.57
2022-12-09T02:56:24.312Z,43.10
2022-12-09T02:58:52.311Z,44.17
2022-12-09T03:01:23.115Z,41.58
2022-12-09T03:03:54.592Z,40.42
2022-12-09T03:06:32.124Z,42.10
2022-12-09T03:09:05.415Z,42.03
2022-12-09T03:11:34.376Z,45.63
2022-12-09T03:14:09.752Z,44.72
2022-12-09T03:16:41.700Z,40.38
2022-12-09T03:21:44.799Z,45.85
2022-12-09T03:24:15.516Z,41.30
2022-12-09T03:26:45.087Z,46.97
2022-12-09T03:29:18.333Z,42.85
2022-12-09T03:31:48.584Z,50.28
2022-12-09T03:34:19.394Z,43.55
2022-12-09T03:36:52.043Z,41.88
2022-12-09T03:39:25.651Z,41.17
2022-12-09T03:41:57.380Z,39.47
2022-12-09T03:44:31.296Z,38.15
2022-12-09T03:47:00.351Z,40.78
2022-12-09T03:49:28.419Z,40.58
2022-12-09T03:52:01.808Z,42.55
2022-12-09T03:54:34.741Z,42.72
2022-12-09T03:57:03.571Z,40.15
2022-12-09T03:59:35.871Z,37.92
2022-12-09T04:02:06.848Z,41.45
2022-12-09T04:04:35.712Z,41.40
2022-12-09T04:07:05.143Z,42.55
2022-12-09T04:09:33.239Z,41.50
2022-12-09T04:12:01.126Z,52.70
2022-12-09T04:14:28.911Z,47.53
2022-12-09T04:16:56.936Z,46.75
2022-12-09T04:19:25.346Z,53.88
2022-12-09T04:21:53.260Z,47.35
2022-12-09T04:24:23.210Z,49.63
2022-12-09T04:26:50.954Z,50.55
2022-12-09T04:29:18.964Z,53.03
2022-12-09T04:31:47.172Z,52.03
2022-12-09T04:34:15.040Z,51.17
2022-12-09T04:36:42.917Z,55.13
2022-12-09T04:39:11.347Z,47.97
2022-12-09T04:41:40.845Z,50.65
2022-12-09T04:44:08.652Z,46.45
2022-12-09T04:46:36.682Z,46.22
2022-12-09T04:49:05.309Z,42.78
2022-12-09T04:51:39.648Z,50.13
2022-12-09T04:54:08.795Z,42.58
2022-12-09T04:56:37.493Z,46.92
2022-12-09T04:59:07.319Z,46.22
2022-12-09T05:01:36.424Z,44.88
2022-12-09T05:04:06.030Z,44.38
2022-12-09T05:06:34.700Z,49.95
2022-12-09T05:09:02.798Z,45.17
2022-12-09T05:11:31.231Z,44.42
2022-12-09T05:13:59.287Z,43.13
2022-12-09T05:16:28.966Z,49.17
2022-12-09T05:18:57.169Z,48.47
2022-12-09T05:21:25.290Z,48.05
2022-12-09T05:23:53.622Z,48.70
2022-12-09T05:26:24.249Z,46.13
2022-12-09T05:28:52.453Z,43.35
2022-12-09T05:31:22.887Z,41.20
2022-12-09T05:33:53.352Z,49.10
2022-12-09T05:36:25.535Z,46.58
2022-12-09T05:38:53.997Z,44.03
2022-12-09T05:41:22.958Z,47.72
2022-12-09T05:43:51.210Z,46.88
2022-12-09T05:46:19.966Z,44.92
2022-12-09T05:48:48.353Z,49.13
2022-12-09T05:51:23.827Z,45.45
2022-12-09T05:53:51.833Z,49.67
2022-12-09T05:56:21.419Z,46.35
2022-12-09T05:58:49.801Z,48.72
2022-12-09T06:01:19.277Z,43.58
2022-12-09T06:03:48.498Z,44.40
2022-12-09T06:06:21.570Z,47.83
2022-12-09T06:08:50.032Z,45.85
2022-12-09T06:11:20.824Z,50.28
2022-12-09T06:13:50.548Z,39.97
2022-12-09T06:16:20.914Z,42.35
2022-12-09T06:18:50.587Z,48.15
2022-12-09T06:21:21.415Z,44.05
2022-12-09T06:23:51.033Z,40.22
2022-12-09T06:26:21.542Z,46.35
2022-12-09T06:28:49.680Z,44.67
2022-12-09T06:31:18.320Z,46.88
2022-12-09T06:33:54.930Z,51.30
2022-12-09T06:36:26.096Z,47.03
2022-12-09T06:38:54.616Z,51.33
2022-12-09T06:41:23.157Z,67.45
2022-12-09T06:43:51.509Z,52.13
2022-12-09T06:46:23.354Z,55.90
2022-12-09T06:48:52.409Z,50.28
2022-12-09T06:51:22.202Z,49.72
2022-12-09T06:53:51.606Z,51.75
2022-12-09T06:56:20.244Z,54.63
2022-12-09T06:58:48.480Z,51.78
2022-12-09T07:01:18.569Z,57.90
2022-12-09T07:03:51.271Z,53.58
2022-12-09T07:06:26.094Z,58.55
2022-12-09T07:08:56.047Z,65.68
2022-12-09T07:11:25.034Z,63.15
2022-12-09T07:13:53.532Z,57.35
2022-12-09T07:16:21.953Z,63.25
2022-12-09T07:18:50.387Z,58.53
2022-12-09T07:21:20.301Z,68.60
2022-12-09T07:23:49.354Z,62.10
2022-12-09T07:26:19.283Z,60.58
2022-12-09T07:28:48.816Z,60.65
2022-12-09T07:31:21.408Z,73.50
2022-12-09T07:33:50.369Z,68.72
2022-12-09T07:36:21.213Z,64.38
2022-12-09T07:38:49.654Z,66.35
2022-12-09T07:41:19.499Z,74.10
2022-12-09T07:43:48.924Z,70.25
2022-12-09T07:46:19.433Z,65.32
2022-12-09T07:48:48.571Z,66.15
2022-12-09T07:51:17.675Z,68.53
2022-12-09T07:53:46.181Z,63.17
2022-12-09T07:56:16.477Z,71.65
2022-12-09T07:58:48.765Z,66.75
2022-12-09T08:03:46.464Z,62.22
2022-12-09T08:06:16.101Z,66.72
2022-12-09T08:08:45.330Z,64.55
2022-12-09T08:11:15.493Z,72.53
2022-12-09T08:13:44.568Z,66.22
2022-12-09T08:16:16.813Z,65.25
2022-12-09T08:18:45.607Z,69.97
2022-12-09T08:21:16.714Z,68.20
2022-12-09T08:23:45.683Z,66.03
2022-12-09T08:26:15.243Z,66.10
2022-12-09T08:28:43.591Z,66.40
2022-12-09T08:31:15.592Z,63.72
2022-12-09T08:36:14.484Z,62.75
2022-12-09T08:38:43.462Z,66.10
2022-12-09T08:41:14.176Z,62.08
2022-12-09T08:43:43.038Z,64.90
2022-12-09T08:46:11.251Z,62.03
2022-12-09T08:48:42.631Z,62.28
2022-12-09T08:51:13.104Z,60.53
2022-12-09T08:53:42.127Z,63.67
2022-12-09T08:56:12.915Z,54.53
2022-12-09T08:58:41.420Z,57.35
2022-12-09T09:01:15.718Z,61.70
2022-12-09T09:03:45.996Z,57.30
2022-12-09T09:06:15.378Z,61.42
2022-12-09T09:08:44.962Z,58.15
2022-12-09T09:11:14.573Z,58.78
2022-12-09T09:13:45.064Z,60.78
2022-12-09T09:16:15.767Z,58.35
2022-12-09T09:18:45.766Z,55.60
2022-12-09T09:21:15.527Z,58.17
2022-12-09T09:23:44.550Z,61.28
2022-12-09T09:26:13.787Z,52.90
2022-12-09T09:28:42.024Z,56.13
2022-12-09T09:31:13.506Z,60.40
2022-12-09T09:33:42.158Z,59.07
2022-12-09T09:36:15.764Z,54.95
2022-12-09T09:38:43.979Z,58.67
2022-12-09T09:41:24.700Z,57.97
2022-12-09T09:43:53.825Z,57.58
2022-12-09T09:46:30.972Z,63.22
2022-12-09T09:49:00.172Z,59.05
2022-12-09T09:51:31.102Z,67.88
2022-12-09T09:54:05.048Z,58.70
2022-12-09T09:56:41.086Z,64.80
2022-12-09T09:59:22.242Z,55.00
2022-12-09T10:02:00.340Z,67.57
2022-12-09T10:04:39.676Z,57.90
2022-12-09T10:07:17.987Z,57.60
2022-12-09T10:09:53.162Z,69.68
2022-12-09T10:12:29.363Z,60.40
2022-12-09T10:15:00.994Z,57.80
2022-12-09T10:17:32.952Z,60.63
2022-12-09T10:22:44.005Z,60.15
2022-12-09T10:25:19.606Z,62.50
2022-12-09T10:27:53.303Z,58.72
2022-12-09T10:30:23.103Z,63.05
2022-12-09T10:32:51.111Z,62.75
2022-12-09T10:35:21.747Z,55.13
2022-12-09T10:37:53.509Z,64.82
2022-12-09T10:40:25.813Z,61.42
2022-12-09T10:43:28.082Z,59.50
2022-12-09T10:48:54.075Z,55.53
2022-12-09T10:51:25.345Z,58.45
2022-12-09T10:53:57.756Z,60.45
2022-12-09T10:59:11.445Z,58.17
2022-12-09T11:01:51.776Z,60.22
2022-12-09T11:04:25.168Z,63.08
2022-12-09T11:06:59.367Z,57.60
2022-12-09T11:09:32.123Z,54.97
2022-12-09T11:12:01.186Z,56.58
2022-12-09T11:14:34.896Z,65.18
2022-12-09T11:17:14.615Z,65.20
2022-12-09T11:19:43.806Z,66.38
2022-12-09T11:22:33.725Z,58.55
2022-12-09T11:25:16.784Z,63.70
2022-12-09T11:27:53.001Z,64.70
2022-12-09T11:30:24.110Z,67.05
2022-12-09T11:33:03.355Z,67.90
2022-12-09T11:35:35.097Z,63.65
2022-12-09T11:38:16.705Z,51.00
2022-12-09T11:41:00.713Z,57.00
2022-12-09T11:43:50.666Z,56.05
2022-12-09T11:46:23.501Z,55.78
2022-12-09T11:48:57.116Z,57.90
2022-12-09T11:51:28.118Z,60.28
2022-12-09T11:54:03.710Z,56.20
2022-12-09T11:56:34.315Z,56.50
2022-12-09T11:59:06.719Z,54.30
2022-12-09T12:01:47.606Z,55.83
2022-12-09T12:04:18.908Z,57.25
2022-12-09T12:06:49.689Z,57.72
2022-12-09T12:09:22.513Z,57.10
2022-12-09T12:12:03.584Z,58.95
2022-12-09T12:14:32.417Z,73.10
2022-12-09T12:17:07.834Z,64.65
2022-12-09T12:19:38.619Z,61.65
2022-12-09T12:22:30.027Z,64.72
2022-12-09T12:25:12.520Z,65.27
2022-12-09T12:28:06.564Z,72.85
2022-12-09T12:30:42.105Z,56.47
2022-12-09T12:36:28.432Z,63.03
2022-12-09T12:39:05.881Z,66.82
2022-12-09T12:41:39.105Z,61.28
2022-12-09T12:44:41.684Z,59.70
2022-12-09T12:50:03.325Z,59.22
2022-12-09T12:52:56.624Z,55.70
2022-12-09T12:55:39.852Z,63.38
2022-12-09T12:58:15.359Z,60.25
2022-12-09T13:01:00.569Z,59.10
2022-12-09T13:03:36.851Z,56.88
2022-12-09T13:06:05.147Z,57.58
2022-12-09T13:08:39.615Z,58.75
2022-12-09T13:11:13.147Z,58.78
2022-12-09T13:13:47.827Z,65.95
2022-12-09T13:16:22.833Z,63.90
2022-12-09T13:18:51.036Z,61.67
2022-12-09T13:21:19.661Z,61.85
2022-12-09T13:24:01.230Z,56.38
2022-12-09T13:26:42.828Z,63.95
2022-12-09T13:29:25.911Z,66.90
2022-12-09T13:32:02.251Z,56.60
2022-12-09T13:34:38.204Z,69.25
2022-12-09T13:37:06.269Z,58.40
2022-12-09T13:39:58.289Z,57.58
2022-12-09T13:42:56.613Z,59.97
2022-12-09T13:45:35.839Z,60.30
2022-12-09T13:48:28.519Z,58.58
2022-12-09T13:51:00.027Z,52.90
2022-12-09T13:53:32.641Z,59.60
2022-12-09T13:56:03.612Z,57.50
2022-12-09T13:59:17.017Z,59.15
2022-12-09T14:01:49.071Z,59.70
2022-12-09T14:06:56.838Z,58.45
2022-12-09T14:09:33.012Z,58.25
2022-12-09T14:12:02.516Z,65.05
2022-12-09T14:14:54.643Z,63.45
2022-12-09T14:17:59.942Z,63.80
2022-12-09T14:20:40.635Z,62.05
2022-12-09T14:23:19.454Z,60.95
2022-12-09T14:26:00.846Z,58.70
2022-12-09T14:28:42.617Z,61.85
2022-12-09T14:31:10.491Z,68.78
2022-12-09T14:33:43.451Z,67.15
2022-12-09T14:36:25.007Z,63.70
2022-12-09T14:39:22.999Z,65.10
2022-12-09T14:41:55.023Z,62.10
2022-12-09T14:44:31.890Z,61.97
2022-12-09T14:47:15.450Z,59.80
2022-12-09T14:49:49.139Z,55.97
2022-12-09T14:52:26.114Z,63.45
2022-12-09T14:54:57.843Z,56.10
2022-12-09T14:57:28.425Z,50.40
2022-12-09T14:59:58.359Z,57.70
2022-12-09T15:02:29.775Z,56.35
2022-12-09T15:04:59.929Z,64.03
2022-12-09T15:07:31.056Z,59.75
2022-12-09T15:10:00.854Z,56.05
2022-12-09T15:12:38.106Z,57.30
2022-12-09T15:15:08.343Z,58.55
2022-12-09T15:17:42.089Z,60.65
2022-12-09T15:20:25.011Z,58.22
2022-12-09T15:22:59.187Z,56.42
2022-12-09T15:25:28.032Z,55.22
2022-12-09T15:27:57.579Z,56.13
2022-12-09T15:30:31.243Z,60.97
2022-12-09T15:32:59.102Z,59.70
2022-12-09T15:35:34.553Z,60.63
2022-12-09T15:38:08.329Z,58.20
2022-12-09T15:40:38.915Z,58.55
2022-12-09T15:43:11.971Z,57.47
2022-12-09T15:45:45.085Z,58.78
2022-12-09T15:48:16.886Z,57.60
2022-12-09T15:50:50.797Z,58.63
2022-12-09T15:53:24.650Z,69.80
2022-12-09T15:55:57.868Z,60.67
2022-12-09T15:58:30.256Z,58.83
2022-12-09T16:00:58.805Z,55.28
2022-12-09T16:03:29.690Z,63.38
2022-12-09T16:06:00.787Z,59.53
2022-12-09T16:08:36.691Z,61.80
2022-12-09T16:11:05.026Z,73.95
2022-12-09T16:13:33.254Z,70.50
2022-12-09T16:16:03.257Z,69.15
2022-12-09T16:18:49.700Z,67.50
2022-12-09T16:21:27.982Z,66.57
2022-12-09T16:24:07.879Z,63.97
2022-12-09T16:26:38.823Z,59.58
2022-12-09T16:29:09.078Z,61.83
2022-12-09T16:31:36.880Z,62.25
2022-12-09T16:34:04.943Z,60.92
2022-12-09T16:36:33.392Z,61.78
2022-12-09T16:39:35.757Z,60.55
2022-12-09T16:42:03.841Z,60.92
2022-12-09T16:44:38.341Z,59.88
2022-12-09T16:47:14.836Z,56.60
2022-12-09T16:49:45.463Z,55.72
2022-12-09T16:52:14.952Z,58.92
2022-12-09T16:54:46.670Z,64.43
2022-12-09T16:57:16.127Z,65.28
2022-12-09T16:59:44.730Z,61.97
2022-12-09T17:02:19.744Z,66.07
2022-12-09T17:04:48.644Z,58.78
2022-12-09T17:07:16.395Z,70.20
2022-12-09T17:09:45.518Z,65.85
2022-12-09T17:12:13.408Z,62.90
2022-12-09T17:14:41.367Z,60.83
2022-12-09T17:17:09.191Z,54.88
2022-12-09T17:19:36.997Z,64.13
2022-12-09T17:22:04.855Z,57.75
2022-12-09T17:24:32.699Z,61.75
2022-12-09T17:27:01.824Z,56.03
2022-12-09T17:29:29.611Z,59.17
2022-12-09T17:31:57.362Z,62.65
2022-12-09T17:34:25.147Z,65.10
2022-12-09T17:36:52.984Z,72.43
2022-12-09T17:39:20.746Z,68.88
2022-12-09T17:41:50.229Z,69.10
2022-12-09T17:44:21.194Z,69.63
2022-12-09T17:46:49.196Z,71.68
2022-12-09T17:49:17.415Z,66.28
2022-12-09T17:51:45.262Z,62.47
2022-12-09T17:54:13.172Z,63.65
2022-12-09T17:56:41.009Z,63.60
2022-12-09T17:59:12.252Z,61.22
2022-12-09T18:01:43.905Z,64.00
2022-12-09T18:04:11.837Z,63.03
2022-12-09T18:06:41.444Z,61.88
2022-12-09T18:09:11.664Z,58.25
2022-12-09T18:11:40.361Z,60.20
2022-12-09T18:14:09.790Z,65.07
2022-12-09T18:16:38.160Z,65.68
2022-12-09T18:19:11.133Z,61.00
2022-12-09T18:21:38.996Z,63.47
2022-12-09T18:24:07.291Z,64.82
2022-12-09T18:26:41.143Z,62.03
2022-12-09T18:29:10.144Z,51.22
2022-12-09T18:31:38.208Z,57.38
2022-12-09T18:34:08.187Z,58.38
2022-12-09T18:36:35.949Z,58.92
2022-12-09T18:39:04.494Z,51.67
2022-12-09T18:41:33.186Z,59.63
2022-12-09T18:44:03.477Z,64.50
2022-12-09T18:46:34.030Z,56.50
2022-12-09T18:49:04.840Z,53.75
2022-12-09T18:51:34.808Z,51.50
2022-12-09T18:54:04.968Z,54.65
2022-12-09T18:56:33.210Z,54.50
2022-12-09T18:59:09.523Z,52.08
2022-12-09T19:01:40.682Z,58.03
2022-12-09T19:04:12.645Z,57.03
2022-12-09T19:06:43.434Z,54.33
2022-12-09T19:09:13.747Z,53.72
2022-12-09T19:11:42.729Z,56.47
2022-12-09T19:14:11.183Z,51.33
2022-12-09T19:16:39.619Z,57.25
2022-12-09T19:19:10.484Z,59.45
2022-12-09T19:21:39.409Z,61.80
2022-12-09T19:24:13.855Z,60.17
2022-12-09T19:26:42.676Z,57.20
2022-12-09T19:29:11.456Z,59.45
2022-12-09T19:31:42.172Z,78.82
2022-12-09T19:34:13.671Z,62.40
2022-12-09T19:36:41.417Z,68.57
2022-12-09T19:39:12.719Z,63.15
2022-12-09T19:41:41.447Z,60.22
2022-12-09T19:44:11.214Z,63.88
2022-12-09T19:46:39.479Z,72.88
2022-12-09T19:49:08.190Z,62.85
2022-12-09T19:51:36.309Z,76.20
2022-12-09T19:54:04.637Z,71.20
2022-12-09T19:56:34.231Z,77.05
2022-12-09T19:59:02.045Z,80.30
2022-12-09T20:01:31.767Z,77.90
2022-12-09T20:04:18.989Z,73.85
2022-12-09T20:06:51.827Z,68.47
2022-12-09T20:09:24.387Z,69.47
2022-12-09T20:11:54.158Z,70.60
2022-12-09T20:14:22.128Z,71.60
2022-12-09T20:16:49.951Z,67.65
2022-12-09T20:19:19.745Z,74.35
2022-12-09T20:21:47.668Z,65.78
2022-12-09T20:24:15.465Z,75.38
2022-12-09T20:26:44.011Z,76.47
2022-12-09T20:29:13.490Z,70.95
2022-12-09T20:31:42.807Z,68.05
2022-12-09T20:34:14.491Z,69.82
2022-12-09T20:36:44.697Z,70.13
2022-12-09T20:39:15.271Z,72.15
2022-12-09T20:41:43.752Z,70.07
2022-12-09T20:44:14.166Z,68.05
2022-12-09T20:46:46.302Z,70.50
2022-12-09T20:49:14.408Z,74.30
2022-12-09T20:51:44.037Z,63.85
2022-12-09T20:54:12.485Z,74.60
2022-12-09T20:56:40.301Z,71.43
2022-12-09T20:59:09.989Z,72.45
2022-12-09T21:01:39.747Z,68.47
2022-12-09T21:04:08.904Z,70.82
2022-12-09T21:06:39.174Z,113.25
2022-12-09T21:09:08.648Z,73.13
2022-12-09T21:11:37.426Z,71.68
2022-12-09T21:14:06.834Z,63.58
2022-12-09T21:16:38.576Z,70.57
2022-12-09T21:19:11.094Z,64.95
2022-12-09T21:21:41.301Z,67.97
2022-12-09T21:24:11.638Z,74.53
2022-12-09T21:26:39.399Z,73.20
2022-12-09T21:29:08.284Z,73.75
2022-12-09T21:31:38.856Z,64.75
2022-12-09T21:34:09.351Z,67.03
2022-12-09T21:36:42.801Z,68.35
2022-12-09T21:39:13.153Z,73.78
2022-12-09T21:41:41.678Z,70.03
2022-12-09T21:44:11.039Z,65.55
2022-12-09T21:46:38.879Z,68.15
2022-12-09T21:49:08.869Z,61.22
2022-12-09T21:51:36.993Z,71.25
2022-12-09T21:54:05.163Z,68.25
2022-12-09T21:56:35.800Z,75.88
2022-12-09T21:59:06.319Z,68.05
2022-12-09T22:01:36.170Z,75.38
2022-12-09T22:04:07.948Z,68.47
2022-12-09T22:06:37.709Z,71.93
2022-12-09T22:09:07.947Z,75.95
2022-12-09T22:11:37.492Z,76.05
2022-12-09T22:14:07.421Z,73.20
2022-12-09T22:16:37.412Z,72.82
2022-12-09T22:19:08.135Z,73.10
2022-12-09T22:21:37.793Z,77.32
2022-12-09T22:24:07.834Z,74.10
2022-12-09T22:26:36.384Z,76.63
2022-12-09T22:29:06.081Z,68.18
2022-12-09T22:31:37.217Z,70.85
2022-12-09T22:34:08.476Z,72.17
2022-12-09T22:36:37.909Z,78.55
2022-12-09T22:39:06.842Z,73.88
2022-12-09T22:41:35.392Z,77.43
2022-12-09T22:44:03.987Z,77.97
2022-12-09T22:46:34.729Z,83.07
2022-12-09T22:49:05.682Z,70.35
2022-12-09T22:51:36.413Z,68.85
2022-12-09T22:54:08.003Z,77.88
2022-12-09T22:56:39.402Z,71.85
2022-12-09T22:59:07.495Z,74.38
2022-12-09T23:01:37.410Z,95.43
2022-12-09T23:04:06.843Z,90.03
2022-12-09T23:06:36.408Z,86.20
2022-12-09T23:09:06.820Z,75.80
2022-12-09T23:11:35.320Z,71.93
2022-12-09T23:14:03.113Z,72.25
2022-12-09T23:16:31.712Z,72.57
2022-12-09T23:19:00.420Z,74.68
2022-12-09T23:21:30.739Z,69.78
2022-12-09T23:24:01.318Z,79.80
2022-12-09T23:26:32.404Z,85.07
2022-12-09T23:29:02.894Z,82.00
2022-12-09T23:31:33.413Z,83.25
2022-12-09T23:34:02.738Z,75.15
2022-12-09T23:36:33.605Z,81.47
2022-12-09T23:39:02.062Z,78.70
2022-12-09T23:41:31.430Z,82.80
2022-12-09T23:43:59.423Z,80.97
2022-12-09T23:46:29.480Z,83.60
2022-12-09T23:48:57.751Z,77.47
2022-12-09T23:51:28.853Z,83.45
2022-12-09T23:53:58.906Z,86.03
2022-12-09T23:56:28.593Z,85.10
2022-12-09T23:59:00.609Z,81.10
